Time;durP1;ratioP1;P1;durP2;ratioP2;P2;SDS_P1;SDS_P2;PMS_P1;PMS_P2;Temp;Humidity;BMP_temperature;BMP_pressure;BME280_temperature;BME280_humidity;BME280_pressure;Samples;Min_cycle;Max_cycle;Signal;HPM_P1;HPM_P2
2022/11/12 00:00:18;;;;;;;3.37;3.27;;;20.40;90.00;;;;;;5055925;28;20524;-57
2022/11/12 00:02:45;;;;;;;4.60;4.33;;;20.40;89.90;;;;;;5053605;28;20449;-55
2022/11/12 00:05:12;;;;;;;3.47;3.37;;;20.50;89.90;;;;;;5055414;28;20854;-57
2022/11/12 00:07:40;;;;;;;3.77;3.67;;;20.40;89.80;;;;;;5055115;28;20885;-53
2022/11/12 00:10:11;;;;;;;3.90;3.80;;;20.40;89.80;;;;;;5054908;28;20489;-53
2022/11/12 00:12:38;;;;;;;3.70;3.60;;;20.40;89.80;;;;;;5055879;28;20439;-52
2022/11/12 00:15:06;;;;;;;3.20;3.20;;;20.40;89.80;;;;;;5055901;28;20448;-55
2022/11/12 00:17:33;;;;;;;3.60;3.50;;;20.40;89.70;;;;;;5055131;28;20480;-55
2022/11/12 00:20:00;;;;;;;4.53;4.33;;;20.40;90.20;;;;;;5055165;28;20551;-55
2022/11/12 00:22:28;;;;;;;3.60;3.50;;;20.40;89.60;;;;;;5055387;28;20453;-53
2022/11/12 00:24:57;;;;;;;3.53;3.43;;;20.40;89.60;;;;;;5055035;28;20452;-59
2022/11/12 00:27:24;;;;;;;3.50;3.40;;;20.40;89.60;;;;;;5054958;28;20531;-55
2022/11/12 00:29:51;;;;;;;3.77;3.73;;;20.40;89.60;;;;;;5055186;28;21105;-58
2022/11/12 00:32:18;;;;;;;3.70;3.60;;;20.40;89.50;;;;;;5054518;28;20436;-58
2022/11/12 00:34:45;;;;;;;3.67;3.57;;;20.40;89.60;;;;;;5055680;28;20456;-54
2022/11/12 00:37:13;;;;;;;3.60;3.50;;;20.40;89.40;;;;;;5054282;28;20479;-62
2022/11/12 00:39:40;;;;;;;3.43;3.33;;;20.40;89.40;;;;;;5053326;28;20535;-60
2022/11/12 00:42:09;;;;;;;3.70;3.60;;;20.40;89.40;;;;;;5054324;28;20444;-60
2022/11/12 00:44:36;;;;;;;3.27;3.17;;;20.40;90.00;;;;;;5054369;28;20487;-62
2022/11/12 00:47:03;;;;;;;3.80;3.70;;;20.40;89.40;;;;;;5054316;28;21032;-63
2022/11/12 00:49:30;;;;;;;3.40;3.40;;;20.40;89.40;;;;;;5053363;28;20622;-60
2022/11/12 00:51:57;;;;;;;3.60;3.50;;;20.40;89.30;;;;;;5054754;28;20570;-61
2022/11/12 00:54:24;;;;;;;3.47;3.37;;;20.40;89.30;;;;;;5054794;28;20441;-60
2022/11/12 00:56:51;;;;;;;3.30;3.20;;;20.40;89.30;;;;;;5054410;28;20970;-59
2022/11/12 00:59:20;;;;;;;3.23;3.13;;;20.40;90.00;;;;;;5054316;28;20570;-58
2022/11/12 01:01:47;;;;;;;4.13;4.00;;;20.30;89.00;;;;;;5054507;28;21051;-61
2022/11/12 01:04:15;;;;;;;3.20;3.20;;;20.30;89.10;;;;;;5054369;28;20449;-61
2022/11/12 01:06:42;;;;;;;3.37;3.27;;;20.30;89.10;;;;;;5054440;28;20524;-60
2022/11/12 01:09:09;;;;;;;3.50;3.40;;;20.30;89.10;;;;;;5054798;28;20490;-59
2022/11/12 01:11:36;;;;;;;3.57;3.47;;;20.30;89.10;;;;;;5054216;28;20490;-59
2022/11/12 01:14:06;;;;;;;3.40;3.30;;;20.30;89.00;;;;;;5052157;28;20470;-61
2022/11/12 01:16:36;;;;;;;3.40;3.30;;;20.30;88.90;;;;;;5054076;28;20456;-60
2022/11/12 01:19:05;;;;;;;3.60;3.50;;;20.30;88.90;;;;;;5053846;28;20540;-59
2022/11/12 01:21:33;;;;;;;3.50;3.40;;;20.30;89.60;;;;;;5053066;28;20472;-61
2022/11/12 01:24:01;;;;;;;3.73;3.63;;;20.30;88.80;;;;;;5053489;28;20505;-62
2022/11/12 01:26:28;;;;;;;3.50;3.40;;;20.30;88.90;;;;;;5053736;28;20491;-61
2022/11/12 01:28:56;;;;;;;3.00;3.00;;;20.30;89.00;;;;;;5053909;28;20508;-62
2022/11/12 01:31:25;;;;;;;3.50;3.40;;;20.30;88.90;;;;;;5053802;28;21036;-58
2022/11/12 01:33:56;;;;;;;3.87;3.77;;;20.20;88.70;;;;;;5053969;28;20448;-60
2022/11/12 01:36:25;;;;;;;3.47;3.37;;;20.20;88.70;;;;;;5053367;28;20484;-60
2022/11/12 01:38:54;;;;;;;3.70;3.60;;;20.20;88.80;;;;;;5053586;28;20508;-55
2022/11/12 01:41:23;;;;;;;3.50;3.40;;;20.20;88.90;;;;;;5052172;28;20467;-55
2022/11/12 01:44:07;;;;;;;4.63;4.27;;;20.20;88.90;;;;;;5051757;28;20489;-56
2022/11/12 01:46:37;;;;;;;5.20;4.90;;;20.20;89.00;;;;;;5032447;28;20441;-51
2022/11/12 01:49:11;;;;;;;5.20;4.20;;;20.20;86.60;;;;;;5049357;28;20845;-53
2022/11/12 01:51:42;;;;;;;4.47;4.30;;;20.30;86.90;;;;;;5054521;28;20507;-53
2022/11/12 01:54:13;;;;;;;4.03;3.93;;;20.30;85.60;;;;;;5054650;28;20447;-54
2022/11/12 01:56:40;;;;;;;4.67;4.37;;;20.40;85.40;;;;;;5053136;28;20513;-50
2022/11/12 01:59:12;;;;;;;4.67;4.47;;;20.50;84.80;;;;;;5052870;28;20491;-57
2022/11/12 02:01:39;;;;;;;4.53;4.20;;;20.60;84.10;;;;;;5052208;28;21066;-55
2022/11/12 02:04:07;;;;;;;4.97;4.77;;;20.60;82.80;;;;;;5052319;28;20467;-53
2022/11/12 02:06:35;;;;;;;5.03;4.83;;;20.60;82.10;;;;;;5051940;28;20480;-49
2022/11/12 02:09:02;;;;;;;4.60;4.30;;;20.70;82.70;;;;;;5051769;28;20827;-53
2022/11/12 02:11:30;;;;;;;5.30;4.93;;;20.70;83.30;;;;;;5051655;28;20491;-51
2022/11/12 02:13:56;;;;;;;6.00;5.60;;;20.80;83.30;;;;;;5051281;28;20495;-54
2022/11/12 02:16:24;;;;;;;4.80;4.50;;;20.80;83.20;;;;;;5051359;28;20811;-60
2022/11/12 02:18:52;;;;;;;5.13;4.83;;;20.90;83.10;;;;;;5051978;28;20459;-55
2022/11/12 02:21:21;;;;;;;4.70;4.50;;;21.00;83.00;;;;;;5052734;28;20468;-56
2022/11/12 02:23:57;;;;;;;4.50;4.40;;;21.00;82.90;;;;;;5051586;28;20970;-53
2022/11/12 02:26:25;;;;;;;4.90;4.60;;;21.10;81.60;;;;;;5054747;28;20447;-56
2022/11/12 02:28:52;;;;;;;4.27;4.10;;;21.00;80.60;;;;;;5057783;28;20440;-56
2022/11/12 02:31:19;;;;;;;5.03;4.50;;;20.90;80.50;;;;;;5057117;28;20490;-54
2022/11/12 02:33:46;;;;;;;4.97;4.47;;;20.90;80.70;;;;;;5056721;28;20452;-54
2022/11/12 02:36:13;;;;;;;4.10;4.00;;;20.80;80.80;;;;;;5056440;28;20531;-56
2022/11/12 02:38:42;;;;;;;4.50;4.40;;;20.80;81.00;;;;;;5056832;28;20529;-58
2022/11/12 02:41:09;;;;;;;6.90;4.97;;;20.70;81.10;;;;;;5057102;28;21053;-50
2022/11/12 02:43:36;;;;;;;4.70;4.50;;;20.70;81.20;;;;;;5057218;28;20443;-57
2022/11/12 02:46:03;;;;;;;5.07;4.80;;;20.70;81.50;;;;;;5056641;28;20447;-52
2022/11/12 02:48:31;;;;;;;5.20;4.80;;;20.60;81.70;;;;;;5055456;28;20466;-57
2022/11/12 02:50:58;;;;;;;5.30;5.10;;;20.60;81.90;;;;;;5056593;28;20508;-51
2022/11/12 02:53:25;;;;;;;4.40;4.20;;;20.50;81.90;;;;;;5057303;28;20448;-54
2022/11/12 02:55:53;;;;;;;5.37;5.07;;;20.40;81.90;;;;;;5056635;28;20502;-53
2022/11/12 02:58:21;;;;;;;5.00;4.70;;;20.50;82.40;;;;;;5056123;28;20444;-51
2022/11/12 03:00:49;;;;;;;4.97;4.77;;;20.40;82.40;;;;;;5055640;28;20492;-54
2022/11/12 03:03:17;;;;;;;4.10;4.00;;;20.40;82.70;;;;;;5054361;28;20444;-53
2022/11/12 03:05:45;;;;;;;4.47;4.27;;;20.40;82.80;;;;;;5055354;28;20481;-54
2022/11/12 03:08:12;;;;;;;4.93;4.63;;;20.30;83.00;;;;;;5055598;28;20447;-53
2022/11/12 03:10:40;;;;;;;3.80;3.70;;;20.30;83.50;;;;;;5055365;28;20480;-51
2022/11/12 03:13:10;;;;;;;4.70;4.50;;;20.30;83.40;;;;;;5055695;28;20505;-56
2022/11/12 03:15:37;;;;;;;3.90;3.80;;;20.30;83.70;;;;;;5055928;28;20436;-56
2022/11/12 03:18:05;;;;;;;6.00;4.10;;;20.30;83.80;;;;;;5054653;28;20451;-53
2022/11/12 03:20:33;;;;;;;4.23;4.03;;;20.20;83.90;;;;;;5054712;28;20476;-61
2022/11/12 03:23:02;;;;;;;4.23;3.97;;;20.20;84.00;;;;;;5055341;28;20527;-61
2022/11/12 03:25:30;;;;;;;4.93;4.73;;;20.20;84.10;;;;;;5055559;28;20460;-61
2022/11/12 03:27:58;;;;;;;4.50;4.20;;;20.20;84.10;;;;;;5055043;28;20459;-62
2022/11/12 03:30:29;;;;;;;4.10;3.97;;;20.20;84.30;;;;;;5054539;28;20507;-62
2022/11/12 03:32:57;;;;;;;4.30;4.10;;;20.10;84.30;;;;;;5055204;28;20443;-62
2022/11/12 03:35:25;;;;;;;4.90;4.70;;;20.10;84.40;;;;;;5055229;28;20542;-62
2022/11/12 03:37:53;;;;;;;4.43;4.20;;;20.10;84.50;;;;;;5053272;28;20459;-62
2022/11/12 03:40:20;;;;;;;4.17;3.83;;;20.10;84.70;;;;;;5054661;28;20654;-63
2022/11/12 03:42:48;;;;;;;4.27;4.00;;;20.10;84.70;;;;;;5054798;28;20532;-53
2022/11/12 03:45:16;;;;;;;4.00;3.90;;;20.10;84.80;;;;;;5054769;28;20448;-50
2022/11/12 03:47:46;;;;;;;4.00;3.80;;;20.10;85.00;;;;;;5054252;28;20502;-53
2022/11/12 03:50:15;;;;;;;4.67;4.43;;;20.10;85.10;;;;;;5054574;28;20526;-50
2022/11/12 03:52:45;;;;;;;4.00;3.90;;;20.00;85.10;;;;;;5054752;28;20448;-53
2022/11/12 03:55:13;;;;;;;4.50;4.30;;;20.00;85.20;;;;;;5054762;28;20542;-53
2022/11/12 03:57:41;;;;;;;4.10;4.00;;;20.00;85.40;;;;;;5054242;28;20444;-53
2022/11/12 04:00:10;;;;;;;4.53;4.23;;;20.00;85.50;;;;;;5054541;28;20537;-54
2022/11/12 04:02:37;;;;;;;5.10;4.90;;;20.00;85.70;;;;;;5054453;28;20539;-51
2022/11/12 04:10:43;;;;;;;4.27;4.17;;;20.00;86.10;;;;;;5054251;28;20479;-58
2022/11/12 04:13:28;;;;;;;4.50;4.20;;;19.90;86.20;;;;;;5054311;28;20526;-57
2022/11/12 04:21:53;;;;;;;4.33;4.13;;;19.90;86.20;;;;;;5054309;28;20818;-59
2022/11/12 04:27:13;;;;;;;4.40;4.20;;;19.90;86.30;;;;;;5054056;28;20443;-60
2022/11/12 04:32:26;;;;;;;4.03;3.93;;;19.80;86.40;;;;;;5054054;28;20501;-60
2022/11/12 04:34:54;;;;;;;4.20;4.00;;;19.80;86.80;;;;;;5053618;28;20444;-60
2022/11/12 04:37:23;;;;;;;4.70;4.50;;;19.80;86.70;;;;;;5053526;28;20480;-59
2022/11/12 04:39:50;;;;;;;4.60;4.40;;;19.80;87.10;;;;;;5053808;28;20448;-56
2022/11/12 04:45:03;;;;;;;4.37;4.17;;;19.80;87.20;;;;;;5053336;28;20478;-58
2022/11/12 04:47:34;;;;;;;4.07;3.87;;;19.80;87.10;;;;;;5052963;28;20814;-60
2022/11/12 04:50:01;;;;;;;4.20;4.10;;;19.80;86.90;;;;;;5053232;28;20975;-58
2022/11/12 04:52:31;;;;;;;4.40;4.20;;;19.80;87.20;;;;;;5053351;28;20491;-59
2022/11/12 04:54:58;;;;;;;4.80;4.60;;;19.80;87.10;;;;;;5053224;28;20454;-59
2022/11/12 04:57:25;;;;;;;4.07;3.87;;;19.80;87.30;;;;;;5033359;28;20479;-60
2022/11/12 04:59:53;;;;;;;4.00;3.90;;;19.80;87.00;;;;;;5033336;28;20445;-60
2022/11/12 05:02:21;;;;;;;4.30;4.20;;;19.80;87.10;;;;;;5033305;28;20514;-59
2022/11/12 05:04:48;;;;;;;4.10;4.00;;;19.80;87.30;;;;;;5033103;28;20956;-60
2022/11/12 05:07:16;;;;;;;3.97;3.80;;;19.80;87.20;;;;;;5051445;28;20478;-59
2022/11/12 05:09:45;;;;;;;4.00;3.80;;;19.80;87.10;;;;;;5052846;28;20452;-60
2022/11/12 05:12:12;;;;;;;3.90;3.80;;;19.80;87.10;;;;;;5052467;28;21006;-59
2022/11/12 05:14:39;;;;;;;3.80;3.70;;;19.80;87.00;;;;;;5053039;28;20472;-60
2022/11/12 05:17:07;;;;;;;4.27;4.07;;;19.80;87.40;;;;;;5052575;28;20456;-58
2022/11/12 05:19:35;;;;;;;4.13;3.83;;;19.80;87.30;;;;;;5052712;28;20448;-62
2022/11/12 05:22:04;;;;;;;4.03;3.93;;;19.80;87.40;;;;;;5052521;28;20440;-54
2022/11/12 05:24:31;;;;;;;4.30;4.20;;;19.80;87.10;;;;;;5052874;28;20470;-56
2022/11/12 05:27:00;;;;;;;4.60;4.40;;;19.80;87.10;;;;;;5052470;28;20510;-52
2022/11/12 05:29:27;;;;;;;3.90;3.80;;;19.80;87.30;;;;;;5052886;28;20885;-57
2022/11/12 05:31:54;;;;;;;3.93;3.83;;;19.80;87.50;;;;;;5052585;28;20484;-54
2022/11/12 05:34:22;;;;;;;4.07;3.87;;;19.80;87.50;;;;;;5052670;28;21005;-60
2022/11/12 05:36:49;;;;;;;4.07;3.90;;;19.70;87.50;;;;;;5051847;28;21006;-60
2022/11/12 05:39:16;;;;;;;4.30;4.20;;;19.70;87.40;;;;;;5052354;28;20940;-61
2022/11/12 05:41:43;;;;;;;3.80;3.70;;;19.80;87.90;;;;;;5052624;28;20535;-59
2022/11/12 05:44:11;;;;;;;4.23;3.93;;;19.70;87.70;;;;;;5052470;28;20444;-58
2022/11/12 05:46:38;;;;;;;4.33;4.23;;;19.70;87.80;;;;;;5051723;28;20456;-53
2022/11/12 05:49:06;;;;;;;4.43;4.23;;;19.70;87.70;;;;;;5052087;28;20660;-56
2022/11/12 05:51:33;;;;;;;4.27;4.17;;;19.70;87.70;;;;;;5051709;28;20495;-56
2022/11/12 05:54:00;;;;;;;4.87;4.67;;;19.70;87.70;;;;;;5051743;28;20461;-59
2022/11/12 05:56:27;;;;;;;5.57;5.07;;;19.70;87.90;;;;;;5051541;28;20452;-57
2022/11/12 05:58:54;;;;;;;4.23;4.03;;;19.70;88.00;;;;;;5052103;28;20464;-58
2022/11/12 06:01:23;;;;;;;3.57;3.47;;;19.70;88.00;;;;;;5051533;28;20896;-56
2022/11/12 06:03:50;;;;;;;4.20;4.10;;;19.70;87.90;;;;;;5052306;28;20446;-57
2022/11/12 06:06:18;;;;;;;3.63;3.53;;;19.70;88.00;;;;;;5051908;28;20873;-56
2022/11/12 06:08:46;;;;;;;3.70;3.60;;;19.70;88.10;;;;;;5052236;28;20498;-57
2022/11/12 06:11:13;;;;;;;4.30;4.07;;;19.60;88.20;;;;;;5052026;28;20517;-58
2022/11/12 06:13:39;;;;;;;3.83;3.73;;;19.60;88.20;;;;;;5052197;28;20443;-54
2022/11/12 06:16:07;;;;;;;4.27;4.17;;;19.60;88.20;;;;;;5052055;28;20993;-59
2022/11/12 06:18:36;;;;;;;3.90;3.80;;;19.60;88.40;;;;;;5052325;28;20440;-59
2022/11/12 06:21:20;;;;;;;3.87;3.70;;;19.60;88.60;;;;;;5051716;28;20982;-58
2022/11/12 06:23:49;;;;;;;4.13;4.03;;;19.60;88.60;;;;;;5052001;28;20981;-62
2022/11/12 06:26:17;;;;;;;4.20;4.00;;;19.60;88.70;;;;;;5051375;28;21001;-61
2022/11/12 06:28:44;;;;;;;4.20;4.00;;;19.60;88.70;;;;;;5051830;28;20535;-62
2022/11/12 06:31:10;;;;;;;4.70;4.30;;;19.60;88.60;;;;;;5052002;28;21129;-62
2022/11/12 06:33:39;;;;;;;4.50;4.30;;;19.60;88.30;;;;;;5051818;28;20470;-61
2022/11/12 06:36:07;;;;;;;3.90;3.80;;;19.60;88.50;;;;;;5051425;28;20455;-62
2022/11/12 06:38:38;;;;;;;3.93;3.83;;;19.60;88.40;;;;;;5051771;28;20475;-61
2022/11/12 06:41:07;;;;;;;4.27;4.17;;;19.70;88.80;;;;;;5052092;28;20472;-61
2022/11/12 06:43:35;;;;;;;4.03;3.93;;;19.70;88.80;;;;;;5051700;28;20935;-62
2022/11/12 06:46:03;;;;;;;4.13;4.03;;;19.70;88.90;;;;;;5051578;28;20452;-61
2022/11/12 06:48:30;;;;;;;3.97;3.83;;;19.70;88.90;;;;;;5051781;28;20527;-61
2022/11/12 06:51:06;;;;;;;4.23;4.13;;;19.70;88.90;;;;;;5051859;28;20563;-61
2022/11/12 06:53:34;;;;;;;4.00;3.90;;;19.70;88.80;;;;;;5051857;28;20448;-61
2022/11/12 06:56:06;;;;;;;4.37;4.17;;;19.70;88.90;;;;;;5051626;28;20814;-62
2022/11/12 06:58:33;;;;;;;4.20;4.10;;;19.70;88.80;;;;;;5051098;28;20459;-62
2022/11/12 07:01:09;;;;;;;4.50;4.30;;;19.60;88.60;;;;;;5051444;28;21061;-61
2022/11/12 07:03:36;;;;;;;4.40;4.23;;;19.70;88.60;;;;;;5051940;28;20454;-63
2022/11/12 07:06:11;;;;;;;4.57;4.37;;;19.70;89.40;;;;;;5052996;28;20530;-61
2022/11/12 07:08:39;;;;;;;4.50;4.37;;;19.60;89.60;;;;;;5051375;28;20848;-61
2022/11/12 07:11:07;;;;;;;4.87;4.67;;;19.70;90.10;;;;;;5051621;28;20468;-62
2022/11/12 07:13:35;;;;;;;4.47;4.37;;;19.70;91.00;;;;;;5054564;28;20509;-62
2022/11/12 07:16:03;;;;;;;4.20;4.10;;;19.80;90.70;;;;;;5054936;28;20480;-61
2022/11/12 07:18:30;;;;;;;4.50;4.30;;;19.80;90.60;;;;;;5054445;28;20448;-62
2022/11/12 07:20:58;;;;;;;4.20;4.10;;;19.90;90.20;;;;;;5054682;28;20507;-62
2022/11/12 07:23:28;;;;;;;4.30;4.20;;;20.00;90.00;;;;;;5054226;28;21009;-64
2022/11/12 07:25:59;;;;;;;4.83;4.63;;;20.10;88.40;;;;;;5054941;28;20543;-57
2022/11/12 07:28:26;;;;;;;4.27;4.17;;;20.20;88.70;;;;;;5054236;28;20955;-51
2022/11/12 07:30:58;;;;;;;5.60;5.30;;;20.30;89.20;;;;;;5054229;28;20463;-53
2022/11/12 07:33:26;;;;;;;4.77;4.57;;;20.40;89.40;;;;;;5054171;28;21034;-59
2022/11/12 07:36:00;;;;;;;4.37;4.17;;;20.50;89.30;;;;;;5054405;28;20470;-60
2022/11/12 07:38:30;;;;;;;4.50;4.40;;;20.60;88.80;;;;;;5054176;28;20523;-61
2022/11/12 07:41:01;;;;;;;4.50;4.30;;;20.70;88.00;;;;;;5054247;28;20474;-62
2022/11/12 07:43:28;;;;;;;4.80;4.70;;;20.80;88.10;;;;;;5054180;28;20530;-52
2022/11/12 07:45:58;;;;;;;5.30;5.00;;;20.90;87.90;;;;;;5054429;28;20486;-61
2022/11/12 07:48:26;;;;;;;4.23;4.13;;;21.00;87.70;;;;;;5053960;28;20935;-61
2022/11/12 07:50:53;;;;;;;4.30;4.10;;;21.00;87.20;;;;;;5053989;28;21015;-56
2022/11/12 07:53:20;;;;;;;4.50;4.40;;;21.10;86.60;;;;;;5053886;28;20973;-57
2022/11/12 07:55:55;;;;;;;4.50;4.27;;;21.20;86.20;;;;;;5054271;28;20452;-57
2022/11/12 07:58:23;;;;;;;4.50;4.30;;;21.20;85.90;;;;;;5054158;28;20822;-60
2022/11/12 08:00:50;;;;;;;4.10;4.00;;;21.30;86.80;;;;;;5054177;28;20484;-60
2022/11/12 08:03:17;;;;;;;4.50;4.30;;;21.40;85.70;;;;;;5059841;28;20479;-61
2022/11/12 08:05:43;;;;;;;5.30;4.97;;;21.40;84.90;;;;;;5064527;28;20456;-61
2022/11/12 08:08:11;;;;;;;4.10;4.00;;;21.50;84.50;;;;;;5065343;28;20826;-62
2022/11/12 08:10:38;;;;;;;4.80;4.60;;;21.50;84.40;;;;;;5065197;28;20456;-63
2022/11/12 08:13:06;;;;;;;4.43;4.33;;;21.50;84.60;;;;;;5066669;28;20586;-62
2022/11/12 08:15:33;;;;;;;4.70;4.60;;;21.60;84.00;;;;;;5066665;28;20520;-62
2022/11/12 08:18:00;;;;;;;4.43;4.23;;;21.60;83.50;;;;;;5066234;28;20451;-62
2022/11/12 08:20:27;;;;;;;4.60;4.40;;;21.70;83.20;;;;;;5061220;28;20885;-61
2022/11/12 08:22:53;;;;;;;4.37;4.27;;;21.70;83.30;;;;;;5055262;28;20503;-63
2022/11/12 08:25:20;;;;;;;4.80;4.60;;;21.80;83.00;;;;;;5056215;28;20822;-63
2022/11/12 08:27:47;;;;;;;4.47;4.37;;;21.80;82.40;;;;;;5058389;28;20531;-62
2022/11/12 08:30:16;;;;;;;4.90;4.70;;;21.80;82.00;;;;;;5056111;28;20468;-58
2022/11/12 08:32:43;;;;;;;4.30;4.10;;;21.90;82.20;;;;;;5055680;28;20575;-61
2022/11/12 08:35:10;;;;;;;4.43;4.33;;;21.90;81.70;;;;;;5055902;28;20448;-63
2022/11/12 08:37:36;;;;;;;5.03;4.83;;;21.90;81.50;;;;;;5055295;28;20444;-60
2022/11/12 08:40:04;;;;;;;4.53;4.43;;;21.90;81.20;;;;;;5053192;28;20464;-61
2022/11/12 08:42:31;;;;;;;4.97;4.87;;;22.00;81.50;;;;;;5053757;28;20869;-64
2022/11/12 08:44:57;;;;;;;5.43;5.00;;;22.00;80.70;;;;;;5053006;28;21030;-63
2022/11/12 08:47:26;;;;;;;5.20;5.00;;;22.00;80.50;;;;;;5052820;28;20444;-63
2022/11/12 08:49:52;;;;;;;4.53;4.33;;;22.00;79.20;;;;;;5052622;28;20533;-62
2022/11/12 08:52:19;;;;;;;5.23;5.03;;;21.90;79.40;;;;;;5052965;28;20475;-63
2022/11/12 08:54:46;;;;;;;4.70;4.40;;;21.90;79.30;;;;;;5052826;28;20483;-62
2022/11/12 08:57:13;;;;;;;5.27;4.97;;;21.90;79.30;;;;;;5052750;28;20539;-65
2022/11/12 08:59:40;;;;;;;4.93;4.70;;;21.90;79.30;;;;;;5052424;28;20483;-63
2022/11/12 09:02:12;;;;;;;5.30;5.00;;;21.90;79.20;;;;;;5052743;28;20440;-62
2022/11/12 09:04:40;;;;;;;5.03;4.83;;;22.00;79.20;;;;;;5052622;28;20445;-60
2022/11/12 09:07:07;;;;;;;5.50;5.13;;;22.10;81.70;;;;;;5052427;28;20526;-59
2022/11/12 09:09:34;;;;;;;5.33;5.13;;;22.10;80.40;;;;;;5052168;28;20450;-57
2022/11/12 09:12:01;;;;;;;5.53;5.23;;;22.20;81.80;;;;;;5052471;28;20591;-61
2022/11/12 09:14:28;;;;;;;5.07;4.87;;;22.20;80.40;;;;;;5052486;28;20877;-58
2022/11/12 09:16:55;;;;;;;5.10;4.83;;;22.30;80.90;;;;;;5052187;28;20524;-59
2022/11/12 09:19:22;;;;;;;4.97;4.70;;;22.30;80.50;;;;;;5052323;28;20543;-64
2022/11/12 09:21:50;;;;;;;4.63;4.50;;;22.30;80.60;;;;;;5052023;28;20486;-64
2022/11/12 09:24:16;;;;;;;5.30;5.10;;;22.30;79.50;;;;;;5051801;28;20444;-64
2022/11/12 09:26:43;;;;;;;5.80;5.60;;;22.30;79.30;;;;;;5052421;28;20479;-66
2022/11/12 09:29:10;;;;;;;4.97;4.77;;;22.30;78.70;;;;;;5052532;28;20989;-64
2022/11/12 09:31:37;;;;;;;5.50;5.00;;;22.30;78.70;;;;;;5052832;28;20547;-63
2022/11/12 09:34:05;;;;;;;4.50;4.40;;;22.30;78.60;;;;;;5052281;28;20448;-64
2022/11/12 09:36:31;;;;;;;5.40;5.20;;;22.20;78.50;;;;;;5051918;28;20470;-64
2022/11/12 09:39:00;;;;;;;5.70;5.20;;;22.20;78.50;;;;;;5053038;28;20448;-65
2022/11/12 09:41:32;;;;;;;4.67;4.47;;;22.20;78.60;;;;;;5052183;28;20495;-64
2022/11/12 09:44:02;;;;;;;5.07;4.77;;;22.20;78.50;;;;;;5052490;28;20528;-64
2022/11/12 09:46:34;;;;;;;5.00;4.80;;;22.20;78.40;;;;;;5052064;28;20534;-64
2022/11/12 09:49:07;;;;;;;4.67;4.50;;;22.20;78.40;;;;;;5052108;28;20483;-63
2022/11/12 09:51:40;;;;;;;5.50;5.13;;;22.20;78.40;;;;;;5051462;28;20539;-68
2022/11/12 09:54:19;;;;;;;4.73;4.53;;;22.20;78.80;;;;;;5052136;28;20436;-62
2022/11/12 09:56:47;;;;;;;4.87;4.67;;;22.30;82.60;;;;;;5052259;28;20860;-62
2022/11/12 09:59:14;;;;;;;4.50;4.40;;;22.40;82.80;;;;;;5052295;28;20849;-62
2022/11/12 10:01:52;;;;;;;5.30;4.90;;;22.50;83.50;;;;;;5051984;28;20519;-63
2022/11/12 10:04:37;;;;;;;5.87;5.57;;;22.50;81.80;;;;;;5051915;28;20448;-66
2022/11/12 10:07:09;;;;;;;5.37;5.07;;;22.40;80.00;;;;;;5051969;28;20522;-65
2022/11/12 10:09:48;;;;;;;4.90;4.70;;;22.40;80.00;;;;;;5051972;28;20471;-64
2022/11/12 10:12:32;;;;;;;4.80;4.60;;;22.40;79.90;;;;;;5051873;28;20562;-65
2022/11/12 10:18:15;;;;;;;4.90;4.70;;;22.30;79.80;;;;;;5030096;28;20437;-64
2022/11/12 10:20:49;;;;;;;4.97;4.70;;;22.30;79.90;;;;;;5032315;28;21058;-65
2022/11/12 10:23:20;;;;;;;4.77;4.67;;;22.30;79.90;;;;;;5031928;28;20441;-65
2022/11/12 10:25:51;;;;;;;4.50;4.20;;;22.30;80.00;;;;;;5043973;28;20531;-65
2022/11/12 10:28:26;;;;;;;5.43;5.23;;;22.20;79.90;;;;;;5056792;28;20535;-65
2022/11/12 10:30:55;;;;;;;4.80;4.70;;;22.20;80.00;;;;;;5055467;28;20575;-65
2022/11/12 10:33:22;;;;;;;4.93;4.73;;;22.30;79.90;;;;;;5053970;28;20502;-65
2022/11/12 10:35:50;;;;;;;5.20;5.10;;;22.30;79.90;;;;;;5053092;28;20890;-65
2022/11/12 10:38:25;;;;;;;4.97;4.87;;;22.30;81.30;;;;;;5052151;28;20472;-64
2022/11/12 10:40:53;;;;;;;4.50;4.30;;;22.30;80.30;;;;;;5054340;28;20463;-65
2022/11/12 10:43:22;;;;;;;4.70;4.50;;;22.30;80.10;;;;;;5051892;28;20437;-61
2022/11/12 10:45:50;;;;;;;4.60;4.50;;;22.30;80.10;;;;;;5051310;28;20539;-64
2022/11/12 10:48:25;;;;;;;8.27;7.43;;;22.30;79.70;;;;;;5055230;28;20966;-63
2022/11/12 10:50:54;;;;;;;5.50;4.90;;;22.30;79.40;;;;;;5055037;28;20982;-63
2022/11/12 10:53:42;;;;;;;6.73;5.60;;;22.20;80.00;;;;;;5057051;28;20511;-65
2022/11/12 10:56:26;;;;;;;6.33;5.93;;;22.30;81.60;;;;;;5060708;28;20448;-66
2022/11/12 10:59:21;;;;;;;5.27;4.90;;;22.50;82.10;;;;;;5055235;28;20966;-65
2022/11/12 11:01:55;;;;;;;5.83;5.33;;;22.60;83.20;;;;;;5008920;28;20484;-65
2022/11/12 11:04:33;;;;;;;5.87;4.80;;;22.60;80.00;;;;;;5054959;28;20528;-61
2022/11/12 11:07:06;;;;;;;4.93;4.53;;;22.70;81.70;;;;;;5054781;28;20999;-64
2022/11/12 11:09:37;;;;;;;5.40;5.10;;;22.70;82.70;;;;;;5054334;28;20479;-64
2022/11/12 11:12:22;;;;;;;5.32;4.82;;;22.80;83.00;;;;;;5054412;28;20814;-66
2022/11/12 11:15:06;;;;;;;5.40;5.00;;;22.90;81.20;;;;;;5055282;28;20574;-65
2022/11/12 11:17:34;;;;;;;5.38;5.07;;;23.00;80.10;;;;;;5054556;28;20451;-64
2022/11/12 11:20:02;;;;;;;5.33;4.77;;;23.00;81.20;;;;;;5055948;28;20324;-63
2022/11/12 11:22:40;;;;;;;5.43;5.20;;;23.20;80.70;;;;;;5054817;28;20536;-65
2022/11/12 11:25:19;;;;;;;4.90;4.60;;;23.30;79.20;;;;;;5055145;28;20444;-65
2022/11/12 11:28:01;;;;;;;4.93;4.73;;;23.30;79.40;;;;;;5053657;28;20443;-63
2022/11/12 11:30:28;;;;;;;5.17;4.97;;;23.30;78.80;;;;;;5054611;28;20467;-61
2022/11/12 11:33:19;;;;;;;4.83;4.63;;;23.40;78.10;;;;;;5054147;28;20468;-64
2022/11/12 11:35:57;;;;;;;5.40;5.10;;;23.40;77.70;;;;;;5045991;28;20531;-62
2022/11/12 11:38:35;;;;;;;5.13;4.93;;;23.50;77.50;;;;;;5054351;28;20439;-63
2022/11/12 11:41:17;;;;;;;4.70;4.50;;;23.50;77.20;;;;;;5054497;28;20456;-63
2022/11/12 11:43:58;;;;;;;5.00;4.80;;;23.50;76.70;;;;;;5055031;28;20954;-65
2022/11/12 11:46:48;;;;;;;5.00;4.90;;;23.50;77.30;;;;;;5056258;28;20720;-64
2022/11/12 11:49:38;;;;;;;4.53;4.43;;;23.50;76.90;;;;;;5057981;28;20467;-65
2022/11/12 11:52:14;;;;;;;4.87;4.57;;;23.60;76.90;;;;;;5057822;28;20479;-64
2022/11/12 11:54:53;;;;;;;5.73;5.40;;;23.60;76.60;;;;;;5057213;28;20493;-64
2022/11/12 11:57:26;;;;;;;5.47;5.17;;;23.60;76.20;;;;;;5054771;28;20537;-64
2022/11/12 12:00:09;;;;;;;4.60;4.50;;;23.70;76.00;;;;;;5055809;28;20501;-65
2022/11/12 12:02:59;;;;;;;4.80;4.60;;;23.70;76.00;;;;;;5057698;28;20886;-63
2022/11/12 12:05:40;;;;;;;4.30;4.10;;;23.70;75.70;;;;;;5037272;28;20451;-66
2022/11/12 12:08:10;;;;;;;4.57;3.97;;;23.80;75.30;;;;;;5052470;28;20522;-65
2022/11/12 12:10:51;;;;;;;5.37;5.03;;;23.70;75.00;;;;;;5054152;28;20253;-65
2022/11/12 12:13:27;;;;;;;5.47;5.27;;;23.70;74.80;;;;;;5054992;28;20586;-67
2022/11/12 12:16:16;;;;;;;5.63;5.33;;;23.70;74.50;;;;;;5056140;28;20451;-65
2022/11/12 12:18:49;;;;;;;4.97;4.67;;;23.70;73.80;;;;;;5056183;28;22177;-62
2022/11/12 12:21:17;;;;;;;5.20;4.90;;;23.70;73.50;;;;;;5053397;28;20512;-66
2022/11/12 12:23:49;;;;;;;5.47;5.07;;;23.60;73.60;;;;;;5053296;28;20471;-65
2022/11/12 12:26:19;;;;;;;4.63;4.50;;;23.60;73.50;;;;;;5053229;28;20535;-65
2022/11/12 12:28:53;;;;;;;4.90;4.60;;;23.60;73.60;;;;;;5053379;28;20850;-66
2022/11/12 12:31:25;;;;;;;5.10;5.00;;;23.60;73.60;;;;;;5052972;28;20467;-68
2022/11/12 12:33:56;;;;;;;5.43;5.03;;;23.60;73.60;;;;;;5053469;28;20476;-62
2022/11/12 12:36:27;;;;;;;4.90;4.73;;;23.60;73.60;;;;;;5053186;28;20448;-62
2022/11/12 12:39:03;;;;;;;4.40;4.20;;;23.60;73.60;;;;;;5053244;28;20452;-64
2022/11/12 12:41:37;;;;;;;4.57;4.47;;;23.60;73.80;;;;;;5053101;28;20463;-64
2022/11/12 12:44:05;;;;;;;4.70;4.50;;;23.60;73.60;;;;;;5053022;28;20539;-65
2022/11/12 12:46:40;;;;;;;5.07;4.87;;;23.60;73.50;;;;;;5052972;28;21016;-66
2022/11/12 12:49:11;;;;;;;4.93;4.67;;;23.60;73.40;;;;;;5052913;28;20526;-64
2022/11/12 12:51:38;;;;;;;4.50;4.30;;;23.60;73.90;;;;;;5052794;28;20538;-64
2022/11/12 12:54:05;;;;;;;5.03;4.90;;;23.50;73.30;;;;;;5052674;28;20511;-64
2022/11/12 12:56:46;;;;;;;4.77;4.57;;;23.50;73.30;;;;;;5051520;28;20483;-63
2022/11/12 12:59:22;;;;;;;4.77;4.57;;;23.50;73.20;;;;;;5052648;28;20454;-66
2022/11/12 13:01:57;;;;;;;5.00;4.80;;;23.50;73.30;;;;;;5052679;28;20992;-67
2022/11/12 13:04:53;;;;;;;4.50;4.40;;;23.50;73.20;;;;;;5052865;28;20440;-66
2022/11/12 13:07:38;;;;;;;4.97;4.67;;;23.50;73.10;;;;;;5045023;28;20990;-67
2022/11/12 13:10:53;;;;;;;5.47;5.17;;;23.50;73.30;;;;;;5052714;28;20543;-66
2022/11/12 13:13:32;;;;;;;6.13;4.93;;;23.60;77.10;;;;;;5052384;28;20480;-64
2022/11/12 13:16:00;;;;;;;5.17;5.07;;;23.60;74.70;;;;;;5052436;28;20440;-66
2022/11/12 13:19:00;;;;;;;4.47;4.37;;;23.50;73.90;;;;;;5051955;28;20476;-62
2022/11/12 13:21:28;;;;;;;4.90;4.80;;;23.70;74.70;;;;;;5052236;28;20559;-66
2022/11/12 13:24:06;;;;;;;4.73;4.63;;;23.80;74.40;;;;;;5052587;28;20527;-63
2022/11/12 13:26:51;;;;;;;4.90;4.70;;;24.00;74.20;;;;;;5052063;28;20535;-65